Time;durP1;ratioP1;P1;durP2;ratioP2;P2;SDS_P1;SDS_P2;PMS_P1;PMS_P2;Temp;Humidity;BMP_temperature;BMP_pressure;BME280_temperature;BME280_humidity;BME280_pressure;Samples;Min_cycle;Max_cycle;Signal;HPM_P1;HPM_P2
2021/08/12 00:02:22;;;;;;;5.27;3.27;;;;;;;14.48;100.00;101599.59;5056104;28;20461;-70
2021/08/12 00:04:50;;;;;;;6.00;3.70;;;;;;;14.51;100.00;101599.81;5056131;28;20442;-71
2021/08/12 00:07:17;;;;;;;3.73;3.00;;;;;;;14.53;100.00;101607.72;5056063;28;20517;-70
2021/08/12 00:09:43;;;;;;;6.53;3.60;;;;;;;14.38;100.00;101606.84;5056088;28;20457;-70
2021/08/12 00:12:10;;;;;;;6.27;3.83;;;;;;;14.30;100.00;101614.94;5055841;28;20896;-70
2021/08/12 00:14:36;;;;;;;5.87;3.53;;;;;;;14.23;99.96;101611.78;5055939;28;20442;-70
2021/08/12 00:17:03;;;;;;;5.20;3.00;;;;;;;14.12;99.40;101611.13;5055622;28;20449;-70
2021/08/12 00:19:29;;;;;;;6.53;3.47;;;;;;;13.95;99.67;101614.44;5055864;28;20449;-70
2021/08/12 00:21:57;;;;;;;6.77;3.67;;;;;;;14.07;99.63;101617.47;5055790;28;20462;-70
2021/08/12 00:24:23;;;;;;;6.17;3.67;;;;;;;14.03;100.00;101611.03;5056082;28;20434;-70
2021/08/12 00:26:50;;;;;;;6.33;3.00;;;;;;;14.04;100.00;101603.66;5055743;28;20446;-70
2021/08/12 00:29:17;;;;;;;6.93;3.83;;;;;;;14.05;100.00;101611.53;5055608;28;20509;-70
2021/08/12 00:31:43;;;;;;;5.00;2.60;;;;;;;14.16;100.00;101617.59;5055866;28;20462;-70
2021/08/12 00:34:09;;;;;;;8.13;3.13;;;;;;;14.17;100.00;101616.50;5055638;28;20438;-70
2021/08/12 00:36:36;;;;;;;5.70;3.60;;;;;;;14.14;100.00;101615.19;5055573;28;20517;-70
2021/08/12 00:39:04;;;;;;;4.43;3.37;;;;;;;14.07;100.00;101612.03;5055547;28;20464;-70
2021/08/12 00:41:35;;;;;;;6.40;4.50;;;;;;;14.09;100.00;101611.75;5055337;28;20449;-71
2021/08/12 00:44:02;;;;;;;4.53;2.87;;;;;;;14.09;100.00;101615.28;5055005;28;20431;-71
2021/08/12 00:46:28;;;;;;;6.63;3.63;;;;;;;14.09;100.00;101614.47;5055391;28;20450;-71
2021/08/12 00:48:55;;;;;;;5.20;3.80;;;;;;;14.04;100.00;101617.28;5055237;28;20501;-70
2021/08/12 00:51:21;;;;;;;4.80;3.20;;;;;;;14.12;100.00;101617.41;5055296;28;20442;-70
2021/08/12 00:53:47;;;;;;;4.50;3.53;;;;;;;13.91;100.00;101610.69;5055245;28;20442;-70
2021/08/12 00:56:16;;;;;;;6.10;3.77;;;;;;;13.93;100.00;101613.09;5055179;28;20826;-70
2021/08/12 00:58:42;;;;;;;4.20;3.70;;;;;;;13.87;100.00;101613.19;5054836;28;20938;-71
2021/08/12 01:01:09;;;;;;;5.17;3.13;;;;;;;13.97;100.00;101614.13;5055359;28;20442;-71
2021/08/12 01:03:35;;;;;;;3.70;3.07;;;;;;;13.97;100.00;101614.94;5054986;28;20485;-71
2021/08/12 01:06:02;;;;;;;6.13;4.37;;;;;;;14.10;100.00;101608.72;5054717;28;20869;-70
2021/08/12 01:08:38;;;;;;;4.60;3.50;;;;;;;14.02;100.00;101614.03;5054879;28;20489;-70
2021/08/12 01:11:15;;;;;;;4.70;3.20;;;;;;;13.90;99.37;101619.97;5054941;28;20422;-70
2021/08/12 01:13:54;;;;;;;5.23;3.70;;;;;;;13.80;98.88;101620.94;5054898;28;20449;-70
2021/08/12 01:16:26;;;;;;;5.17;3.30;;;;;;;13.65;99.83;101614.94;5054687;28;20449;-70
2021/08/12 01:18:56;;;;;;;5.47;3.70;;;;;;;13.65;98.87;101610.28;5054875;28;20476;-70
2021/08/12 01:21:38;;;;;;;4.53;2.50;;;;;;;13.71;97.79;101608.28;5054585;28;20445;-71
2021/08/12 01:24:10;;;;;;;6.60;4.60;;;;;;;13.64;100.00;101608.69;5054728;28;20422;-70
2021/08/12 01:26:40;;;;;;;8.80;3.67;;;;;;;13.59;100.00;101619.63;5054884;28;20427;-70
2021/08/12 01:29:11;;;;;;;6.73;3.77;;;;;;;13.56;100.00;101612.06;5054760;28;20474;-70
2021/08/12 01:31:47;;;;;;;6.27;4.00;;;;;;;13.63;100.00;101620.66;5054530;28;20803;-70
2021/08/12 01:34:23;;;;;;;6.90;3.40;;;;;;;13.77;100.00;101615.28;5054487;28;20430;-70
2021/08/12 01:36:54;;;;;;;5.40;3.17;;;;;;;13.66;100.00;101622.78;5054520;28;20426;-70
2021/08/12 01:39:23;;;;;;;13.73;4.43;;;;;;;13.63;100.00;101616.03;5054423;28;20785;-70
2021/08/12 01:41:50;;;;;;;6.77;4.30;;;;;;;13.67;100.00;101613.50;5054246;28;20811;-70
2021/08/12 01:44:19;;;;;;;7.00;3.87;;;;;;;13.73;100.00;101614.25;5054272;28;20453;-70
2021/08/12 01:46:47;;;;;;;3.43;3.03;;;;;;;13.74;100.00;101619.41;5054238;28;20442;-70
2021/08/12 01:49:14;;;;;;;4.57;3.50;;;;;;;13.59;100.00;101614.19;5054136;28;20493;-70
2021/08/12 01:51:42;;;;;;;5.37;4.13;;;;;;;13.63;100.00;101621.50;5054048;28;20454;-70
2021/08/12 01:54:10;;;;;;;6.07;3.30;;;;;;;13.67;100.00;101618.97;5054110;28;20496;-70
2021/08/12 01:56:37;;;;;;;4.93;3.77;;;;;;;13.55;100.00;101616.72;5053482;28;20431;-70
2021/08/12 01:59:06;;;;;;;4.03;3.10;;;;;;;13.53;100.00;101618.91;5053686;28;20470;-70
2021/08/12 02:01:33;;;;;;;4.57;3.30;;;;;;;13.55;100.00;101615.91;5053859;28;20470;-71
2021/08/12 02:04:01;;;;;;;7.47;3.27;;;;;;;13.62;100.00;101619.03;5053640;28;20445;-70
2021/08/12 02:06:34;;;;;;;3.73;2.80;;;;;;;13.57;100.00;101619.13;5053867;28;20453;-70
2021/08/12 02:09:01;;;;;;;6.87;3.60;;;;;;;13.43;99.68;101612.81;5053460;28;21017;-70
2021/08/12 02:11:29;;;;;;;8.50;3.33;;;;;;;13.27;98.88;101613.03;5053502;28;20446;-70
2021/08/12 02:13:55;;;;;;;4.40;3.27;;;;;;;13.21;98.12;101611.44;5054024;28;20825;-70
2021/08/12 02:16:22;;;;;;;3.77;2.90;;;;;;;13.24;97.94;101610.91;5053645;28;20446;-70
2021/08/12 02:18:48;;;;;;;3.93;3.37;;;;;;;13.24;98.88;101612.81;5053634;28;20504;-70
2021/08/12 02:21:21;;;;;;;4.53;3.77;;;;;;;13.31;99.92;101616.78;5053507;28;20446;-70
2021/08/12 02:23:57;;;;;;;6.23;3.70;;;;;;;13.29;100.00;101613.56;5053553;28;20450;-70
2021/08/12 02:26:23;;;;;;;4.17;3.70;;;;;;;13.21;100.00;101619.63;5053216;28;20930;-70
2021/08/12 02:28:52;;;;;;;4.47;2.97;;;;;;;13.30;100.00;101617.88;5053371;28;20490;-70
2021/08/12 02:31:21;;;;;;;4.50;3.03;;;;;;;13.26;100.00;101613.31;5052911;28;20453;-70
2021/08/12 02:33:49;;;;;;;5.03;3.70;;;;;;;13.09;100.00;101611.88;5053011;28;20473;-70
2021/08/12 02:36:16;;;;;;;7.97;4.63;;;;;;;13.08;100.00;101612.97;5053643;28;20484;-70
2021/08/12 02:38:46;;;;;;;4.50;3.20;;;;;;;13.16;100.00;101608.00;5053304;28;20525;-70
2021/08/12 02:41:15;;;;;;;6.33;4.30;;;;;;;13.10;100.00;101605.34;5053098;28;20831;-69
2021/08/12 02:43:44;;;;;;;5.40;3.33;;;;;;;12.96;98.94;101598.19;5053212;28;20445;-69
2021/08/12 02:46:15;;;;;;;4.63;2.80;;;;;;;12.98;99.57;101604.97;5053139;28;20450;-69
2021/08/12 02:48:42;;;;;;;5.80;4.70;;;;;;;12.94;98.76;101600.41;5053409;28;20492;-70
2021/08/12 02:51:10;;;;;;;4.20;3.80;;;;;;;12.97;98.89;101602.50;5053182;28;20446;-70
2021/08/12 02:53:37;;;;;;;6.97;4.00;;;;;;;12.93;99.39;101604.22;5053158;28;20434;-70
2021/08/12 02:56:07;;;;;;;6.77;3.90;;;;;;;12.85;100.00;101598.31;5052923;28;20457;-70
2021/08/12 02:58:34;;;;;;;3.30;2.80;;;;;;;12.96;100.00;101607.16;5053052;28;20446;-70
2021/08/12 03:01:01;;;;;;;6.30;2.87;;;;;;;12.90;100.00;101604.81;5053075;28;20438;-70
2021/08/12 03:03:30;;;;;;;3.77;3.00;;;;;;;12.85;100.00;101598.31;5052996;28;20469;-70
2021/08/12 03:05:58;;;;;;;4.73;3.10;;;;;;;12.96;100.00;101603.63;5052716;28;20458;-70
2021/08/12 03:08:26;;;;;;;3.67;2.83;;;;;;;13.00;100.00;101607.38;5055274;28;21028;-70
2021/08/12 03:10:54;;;;;;;4.13;3.50;;;;;;;12.98;100.00;101609.59;5057186;28;20438;-70
2021/08/12 03:13:21;;;;;;;7.70;3.33;;;;;;;13.00;100.00;101608.19;5056751;28;20474;-70
2021/08/12 03:15:47;;;;;;;4.20;3.30;;;;;;;13.00;100.00;101601.94;5057121;28;20434;-70
2021/08/12 03:18:14;;;;;;;3.33;2.63;;;;;;;12.97;100.00;101614.22;5057027;28;20442;-70
2021/08/12 03:20:42;;;;;;;5.83;4.20;;;;;;;12.97;100.00;101611.50;5057014;28;20826;-69
2021/08/12 03:23:10;;;;;;;4.70;3.70;;;;;;;12.92;100.00;101614.28;5056919;28;20458;-70
2021/08/12 03:25:37;;;;;;;6.00;3.37;;;;;;;12.91;100.00;101614.56;5056658;28;20966;-70
2021/08/12 03:28:03;;;;;;;4.67;3.10;;;;;;;12.87;100.00;101620.59;5056783;28;20442;-70
2021/08/12 03:30:30;;;;;;;6.30;3.13;;;;;;;12.83;100.00;101624.97;5056819;28;20442;-69
2021/08/12 03:32:56;;;;;;;5.03;3.20;;;;;;;12.78;100.00;101630.47;5056730;28;20465;-70
2021/08/12 03:35:23;;;;;;;3.77;3.37;;;;;;;12.70;100.00;101631.13;5056770;28;20442;-70
2021/08/12 03:37:51;;;;;;;4.20;3.73;;;;;;;12.71;100.00;101631.94;5056362;28;20957;-70
2021/08/12 03:40:17;;;;;;;4.30;2.90;;;;;;;12.84;100.00;101629.34;5056685;28;20442;-69
2021/08/12 03:42:43;;;;;;;4.17;2.80;;;;;;;12.74;99.97;101643.03;5056550;28;20462;-69
2021/08/12 03:45:11;;;;;;;5.63;3.90;;;;;;;12.63;99.30;101638.81;5056553;28;20620;-69
2021/08/12 03:47:37;;;;;;;4.63;3.03;;;;;;;12.62;99.39;101645.38;5056531;28;20431;-69
2021/08/12 03:50:04;;;;;;;4.33;2.73;;;;;;;12.54;98.32;101641.38;5056422;28;20481;-69
2021/08/12 03:52:30;;;;;;;4.60;3.63;;;;;;;12.55;98.63;101628.59;5056287;28;20496;-69
2021/08/12 03:54:58;;;;;;;4.57;3.57;;;;;;;12.67;99.10;101639.06;5056383;28;20445;-69
2021/08/12 03:57:25;;;;;;;4.77;3.77;;;;;;;12.71;99.33;101640.09;5056338;28;20445;-69
2021/08/12 03:59:51;;;;;;;4.37;3.97;;;;;;;12.78;99.34;101641.34;5056227;28;20438;-69
2021/08/12 04:02:17;;;;;;;4.03;2.90;;;;;;;12.86;99.15;101643.44;5057509;28;20458;-69
2021/08/12 04:04:44;;;;;;;5.57;2.97;;;;;;;12.89;99.73;101647.50;5055945;28;20969;-69
2021/08/12 04:07:10;;;;;;;3.27;2.83;;;;;;;12.88;99.97;101634.97;5056182;28;20446;-69
2021/08/12 04:09:37;;;;;;;3.10;2.80;;;;;;;12.89;99.92;101647.50;5056329;28;20484;-69
2021/08/12 04:12:05;;;;;;;5.10;2.90;;;;;;;12.93;100.00;101642.31;5055848;28;20486;-69
2021/08/12 04:14:32;;;;;;;5.23;3.60;;;;;;;12.88;100.00;101637.69;5055838;28;20458;-69
2021/08/12 04:16:58;;;;;;;5.60;3.87;;;;;;;12.78;100.00;101640.56;5055977;28;20450;-69
2021/08/12 04:19:25;;;;;;;6.03;3.60;;;;;;;12.75;100.00;101641.97;5055083;28;20845;-69
2021/08/12 04:21:52;;;;;;;5.03;3.60;;;;;;;12.85;100.00;101647.28;5055857;28;20470;-69
2021/08/12 04:24:18;;;;;;;4.70;3.90;;;;;;;12.87;100.00;101652.41;5055857;28;20453;-69
2021/08/12 04:26:45;;;;;;;5.00;3.60;;;;;;;12.87;100.00;101650.50;5056199;28;20443;-68
2021/08/12 04:29:12;;;;;;;14.07;4.20;;;;;;;12.86;100.00;101656.22;5055680;28;20485;-68
2021/08/12 04:31:39;;;;;;;6.17;3.10;;;;;;;12.82;100.00;101647.03;5055645;28;20809;-68
2021/08/12 04:34:05;;;;;;;4.10;3.63;;;;;;;12.79;100.00;101643.00;5055730;28;20453;-68
2021/08/12 04:36:32;;;;;;;4.93;3.87;;;;;;;12.92;100.00;101646.91;5055335;28;20438;-68
2021/08/12 04:38:58;;;;;;;3.60;3.00;;;;;;;12.92;100.00;101651.53;5055599;28;20430;-68
2021/08/12 04:41:25;;;;;;;4.93;3.53;;;;;;;12.98;100.00;101653.13;5055502;28;20488;-68
2021/08/12 04:43:51;;;;;;;7.77;4.17;;;;;;;13.06;100.00;101663.34;5055514;28;20522;-68
2021/08/12 04:46:20;;;;;;;4.00;2.87;;;;;;;13.04;99.85;101660.09;5055195;28;20462;-68
2021/08/12 04:48:46;;;;;;;4.30;3.83;;;;;;;12.98;100.00;101664.78;5055445;28;20486;-68
2021/08/12 04:51:13;;;;;;;11.73;4.10;;;;;;;12.95;100.00;101657.22;5055237;28;20453;-68
2021/08/12 04:53:39;;;;;;;3.87;3.07;;;;;;;12.98;100.00;101658.56;5055359;28;20816;-68
2021/08/12 04:56:06;;;;;;;4.30;3.00;;;;;;;12.99;100.00;101652.81;5055294;28;20442;-68
2021/08/12 04:58:32;;;;;;;6.30;4.53;;;;;;;13.07;100.00;101654.91;5055225;28;20446;-70
2021/08/12 05:00:59;;;;;;;4.40;3.60;;;;;;;13.18;100.00;101666.44;5055257;28;20442;-72
2021/08/12 05:03:27;;;;;;;7.10;4.37;;;;;;;13.33;100.00;101663.56;5055108;28;20819;-70
2021/08/12 05:06:01;;;;;;;4.83;3.47;;;;;;;13.37;100.00;101663.78;5054714;28;20474;-70
2021/08/12 05:08:28;;;;;;;5.67;3.77;;;;;;;13.41;100.00;101662.06;5055057;28;20462;-70
2021/08/12 05:10:54;;;;;;;4.10;2.93;;;;;;;13.42;100.00;101663.72;5055046;28;20446;-70
2021/08/12 05:13:20;;;;;;;7.30;4.47;;;;;;;13.57;100.00;101663.50;5054487;28;20896;-70
2021/08/12 05:15:47;;;;;;;6.10;3.37;;;;;;;13.83;100.00;101672.09;5054914;28;20450;-72
2021/08/12 05:18:13;;;;;;;6.83;4.60;;;;;;;14.01;100.00;101672.38;5054814;28;20445;-70
2021/08/12 05:20:41;;;;;;;8.10;3.57;;;;;;;14.14;100.00;101661.50;5054817;28;20442;-72
2021/08/12 05:23:07;;;;;;;7.90;5.20;;;;;;;14.18;100.00;101669.91;5054391;28;20975;-69
2021/08/12 05:25:35;;;;;;;5.40;3.00;;;;;;;14.28;100.00;101669.72;5054773;28;20438;-69
2021/08/12 05:28:01;;;;;;;4.70;3.33;;;;;;;14.37;100.00;101659.75;5054668;28;20442;-69
2021/08/12 05:30:28;;;;;;;5.73;3.70;;;;;;;14.48;100.00;101656.84;5054213;28;20886;-69
2021/08/12 05:32:54;;;;;;;4.63;3.47;;;;;;;14.60;100.00;101659.91;5054748;28;20458;-70
2021/08/12 05:35:21;;;;;;;6.90;4.47;;;;;;;14.72;100.00;101665.69;5054564;28;20442;-69
2021/08/12 05:37:48;;;;;;;5.50;3.60;;;;;;;14.84;100.00;101663.25;5054461;28;20438;-69
2021/08/12 05:40:15;;;;;;;5.73;3.90;;;;;;;14.91;100.00;101657.38;5054113;28;20961;-69
2021/08/12 05:42:41;;;;;;;6.33;4.70;;;;;;;15.03;100.00;101665.06;5054288;28;20482;-69
2021/08/12 05:45:08;;;;;;;4.97;3.57;;;;;;;15.17;100.00;101673.25;5054386;28;20469;-69
2021/08/12 05:47:35;;;;;;;10.87;6.67;;;;;;;15.25;100.00;101673.34;5054403;28;20449;-69
2021/08/12 05:50:01;;;;;;;6.03;3.47;;;;;;;15.34;100.00;101662.50;5054205;28;20486;-69
2021/08/12 05:52:28;;;;;;;7.20;4.23;;;;;;;15.46;100.00;101662.78;5054144;28;20481;-69
2021/08/12 05:54:55;;;;;;;5.77;4.10;;;;;;;15.58;100.00;101664.97;5054159;28;20447;-69
2021/08/12 05:57:22;;;;;;;7.80;5.13;;;;;;;15.69;100.00;101665.56;5054146;28;20815;-69
2021/08/12 05:59:48;;;;;;;6.13;4.40;;;;;;;15.81;100.00;101663.91;5054068;28;20475;-69
2021/08/12 06:02:14;;;;;;;7.57;4.80;;;;;;;15.93;100.00;101668.81;5053911;28;20469;-69
2021/08/12 06:04:41;;;;;;;9.17;5.27;;;;;;;16.04;100.00;101666.66;5053975;28;20446;-69
2021/08/12 06:07:07;;;;;;;7.97;5.13;;;;;;;16.14;100.00;101669.91;5053980;28;20801;-69
2021/08/12 06:09:34;;;;;;;5.50;4.40;;;;;;;16.24;100.00;101659.84;5053856;28;20489;-69
2021/08/12 06:12:02;;;;;;;5.90;4.60;;;;;;;16.33;100.00;101669.69;5053634;28;20470;-69
2021/08/12 06:14:29;;;;;;;9.50;5.90;;;;;;;16.40;100.00;101672.00;5053805;28;20442;-69
2021/08/12 06:16:55;;;;;;;6.53;3.70;;;;;;;16.53;100.00;101668.38;5053751;28;20449;-71
2021/08/12 06:19:21;;;;;;;9.87;6.43;;;;;;;16.62;100.00;101671.97;5053729;28;20453;-70
2021/08/12 06:21:48;;;;;;;5.50;4.20;;;;;;;16.72;100.00;101676.38;5053289;28;21006;-70
2021/08/12 06:24:15;;;;;;;7.40;5.33;;;;;;;16.81;100.00;101679.94;5053646;28;20442;-70
2021/08/12 06:26:43;;;;;;;7.20;4.17;;;;;;;16.92;100.00;101680.47;5053551;28;20489;-70
2021/08/12 06:29:11;;;;;;;8.30;4.63;;;;;;;17.04;100.00;101686.13;5053124;28;20477;-70
2021/08/12 06:31:38;;;;;;;7.40;4.27;;;;;;;17.21;100.00;101682.63;5053772;28;20454;-70
2021/08/12 06:34:04;;;;;;;7.70;4.57;;;;;;;17.38;100.00;101681.88;5053481;28;20515;-70
2021/08/12 06:36:31;;;;;;;8.33;4.90;;;;;;;17.52;100.00;101688.00;5053456;28;20454;-70
2021/08/12 06:38:59;;;;;;;6.10;3.93;;;;;;;17.65;99.18;101692.53;5053352;28;20449;-70
2021/08/12 06:41:25;;;;;;;6.90;3.73;;;;;;;17.78;97.61;101701.75;5053306;28;20472;-70
2021/08/12 06:43:52;;;;;;;6.67;4.70;;;;;;;17.93;96.83;101705.97;5052900;28;20438;-70
2021/08/12 06:46:20;;;;;;;5.50;3.77;;;;;;;18.05;96.46;101700.63;5052996;28;20944;-70
2021/08/12 06:48:46;;;;;;;4.53;3.40;;;;;;;18.13;96.34;101708.03;5053268;28;20454;-70
2021/08/12 06:51:12;;;;;;;5.90;4.07;;;;;;;18.19;95.83;101707.84;5052775;28;20852;-70
2021/08/12 06:53:39;;;;;;;5.57;4.37;;;;;;;18.25;95.87;101707.38;5053190;28;20445;-70
2021/08/12 06:56:05;;;;;;;5.90;3.30;;;;;;;18.33;96.46;101709.31;5053244;28;20442;-69
2021/08/12 06:58:32;;;;;;;4.43;3.20;;;;;;;18.39;96.72;101707.19;5053307;28;20442;-70
2021/08/12 07:00:59;;;;;;;5.60;3.97;;;;;;;18.49;95.88;101704.09;5053116;28;20442;-70
2021/08/12 07:03:26;;;;;;;3.90;2.63;;;;;;;18.59;94.29;101703.75;5053289;28;20473;-72
2021/08/12 07:05:53;;;;;;;3.53;2.70;;;;;;;18.74;91.51;101710.66;5053224;28;20454;-70
2021/08/12 07:08:19;;;;;;;9.53;3.00;;;;;;;18.99;86.39;101713.63;5053389;28;20446;-71
2021/08/12 07:10:46;;;;;;;3.90;2.37;;;;;;;19.13;86.51;101711.47;5052966;28;20484;-71
2021/08/12 07:13:12;;;;;;;4.93;3.20;;;;;;;19.23;87.85;101713.81;5052625;28;20923;-71
2021/08/12 07:15:38;;;;;;;6.13;3.07;;;;;;;19.28;87.56;101716.38;5052719;28;20939;-70
2021/08/12 07:18:05;;;;;;;2.90;2.40;;;;;;;19.35;86.50;101715.88;5052665;28;20442;-70
2021/08/12 07:20:37;;;;;;;4.73;2.27;;;;;;;19.44;86.91;101715.81;5052964;28;20447;-71
2021/08/12 07:23:04;;;;;;;2.53;1.77;;;;;;;19.53;85.31;101713.81;5052904;28;20458;-71
2021/08/12 07:25:30;;;;;;;2.87;2.10;;;;;;;19.63;82.11;101703.22;5052580;28;20966;-71
2021/08/12 07:27:57;;;;;;;9.43;2.40;;;;;;;19.82;80.24;101712.94;5052857;28;20457;-71
2021/08/12 07:30:23;;;;;;;3.80;2.27;;;;;;;19.98;78.29;101708.47;5052831;28;20486;-71
2021/08/12 07:32:49;;;;;;;3.40;2.30;;;;;;;20.13;79.49;101701.50;5052824;28;20469;-70
2021/08/12 07:35:18;;;;;;;3.23;2.10;;;;;;;20.22;81.35;101702.22;5052820;28;20441;-71
2021/08/12 07:37:45;;;;;;;2.27;1.67;;;;;;;20.32;78.23;101701.00;5052765;28;20508;-71
2021/08/12 07:40:13;;;;;;;2.30;1.87;;;;;;;20.41;77.90;101693.47;5052740;28;20446;-71
2021/08/12 07:42:40;;;;;;;2.77;2.07;;;;;;;20.55;73.41;101705.00;5052358;28;20979;-71
2021/08/12 07:45:07;;;;;;;3.33;2.43;;;;;;;20.67;74.30;101706.94;5052732;28;20437;-71
2021/08/12 07:47:34;;;;;;;4.10;2.13;;;;;;;20.79;71.33;101701.47;5052638;28;20449;-71
2021/08/12 07:50:00;;;;;;;3.33;2.30;;;;;;;21.01;70.51;101704.91;5052570;28;20482;-71
2021/08/12 07:52:27;;;;;;;2.87;1.93;;;;;;;21.13;71.91;101702.16;5052538;28;20477;-71
2021/08/12 07:54:55;;;;;;;2.90;2.07;;;;;;;21.14;71.48;101703.75;5054172;28;20453;-71
2021/08/12 07:57:21;;;;;;;2.20;1.93;;;;;;;21.22;73.33;101704.78;5056454;28;20441;-71
2021/08/12 07:59:48;;;;;;;3.80;2.20;;;;;;;21.30;70.36;101701.91;5056014;28;20960;-71
2021/08/12 08:02:15;;;;;;;2.00;1.50;;;;;;;21.36;72.28;101706.06;5056268;28;20473;-71
2021/08/12 08:04:43;;;;;;;2.20;1.73;;;;;;;21.39;72.76;101699.88;5055877;28;20457;-71
2021/08/12 08:07:09;;;;;;;3.23;1.77;;;;;;;21.39;73.70;101699.88;5055940;28;21012;-71
2021/08/12 08:09:36;;;;;;;1.70;1.60;;;;;;;21.41;72.92;101702.25;5056115;28;20438;-71
2021/08/12 08:12:04;;;;;;;2.50;1.77;;;;;;;21.49;71.22;101706.84;5055774;28;20473;-71
2021/08/12 08:14:31;;;;;;;5.50;1.90;;;;;;;21.59;68.89;101702.78;5056066;28;20445;-71
2021/08/12 08:16:57;;;;;;;1.63;1.40;;;;;;;21.72;68.47;101707.13;5055968;28;20449;-71
2021/08/12 08:19:23;;;;;;;2.37;1.60;;;;;;;21.76;70.43;101707.22;5056014;28;20827;-71
2021/08/12 08:21:50;;;;;;;1.70;1.40;;;;;;;21.76;68.69;101701.72;5055861;28;20462;-71
2021/08/12 08:24:16;;;;;;;4.40;2.30;;;;;;;21.89;65.98;101695.81;5055931;28;20439;-71
2021/08/12 08:26:43;;;;;;;2.47;2.20;;;;;;;22.04;63.95;101697.00;5055841;28;20453;-71
2021/08/12 08:29:10;;;;;;;3.27;2.00;;;;;;;22.11;64.99;101693.66;5055816;28;20442;-71
2021/08/12 08:31:37;;;;;;;2.83;2.27;;;;;;;22.24;63.21;101691.66;5055718;28;20486;-71
2021/08/12 08:34:03;;;;;;;3.27;1.90;;;;;;;22.32;64.60;101691.50;5055892;28;20438;-71
2021/08/12 08:36:30;;;;;;;2.40;1.77;;;;;;;22.31;64.83;101687.13;5055665;28;20794;-71
2021/08/12 08:38:56;;;;;;;2.10;1.90;;;;;;;22.41;65.02;101697.66;5055660;28;20449;-71
2021/08/12 08:41:23;;;;;;;2.47;1.93;;;;;;;22.51;64.96;101698.28;5055561;28;20445;-71
2021/08/12 08:43:53;;;;;;;1.40;1.20;;;;;;;22.59;60.29;101703.63;5055518;28;20449;-71
2021/08/12 08:46:22;;;;;;;2.40;1.90;;;;;;;22.74;60.03;101704.00;5055578;28;20442;-71
2021/08/12 08:48:50;;;;;;;2.23;1.53;;;;;;;22.81;61.29;101710.50;5055485;28;20891;-71
2021/08/12 08:51:17;;;;;;;3.87;2.10;;;;;;;22.84;60.35;101712.56;5055502;28;20482;-72
2021/08/12 08:53:44;;;;;;;1.73;1.50;;;;;;;22.88;62.63;101707.91;5054942;28;20848;-71
2021/08/12 08:56:11;;;;;;;3.00;2.27;;;;;;;22.91;62.08;101704.47;5055340;28;20442;-71
2021/08/12 08:58:40;;;;;;;2.00;1.73;;;;;;;22.98;58.68;101705.81;5055249;28;20443;-71
2021/08/12 09:01:06;;;;;;;2.83;1.70;;;;;;;22.92;59.17;101696.97;5055232;28;20537;-71
2021/08/12 09:03:34;;;;;;;2.17;1.60;;;;;;;22.81;57.19;101693.94;5055113;28;20549;-71
2021/08/12 09:06:01;;;;;;;3.93;1.70;;;;;;;22.92;59.54;101702.50;5054793;28;20465;-71
2021/08/12 09:08:30;;;;;;;2.60;2.13;;;;;;;23.15;58.45;101692.41;5054797;28;20962;-71
2021/08/12 09:10:56;;;;;;;1.80;1.70;;;;;;;23.37;58.89;101699.22;5054969;28;20482;-71
2021/08/12 09:13:23;;;;;;;3.00;1.40;;;;;;;23.60;56.85;101698.53;5054264;28;20482;-70
2021/08/12 09:15:49;;;;;;;2.50;1.73;;;;;;;23.77;56.85;101700.88;5054630;28;20450;-70
2021/08/12 09:18:21;;;;;;;3.30;1.73;;;;;;;23.88;58.48;101695.56;5054582;28;20863;-73
2021/08/12 09:20:51;;;;;;;2.03;1.57;;;;;;;23.94;59.93;101698.81;5054832;28;20450;-70
2021/08/12 09:23:23;;;;;;;4.83;2.50;;;;;;;23.95;58.44;101695.72;5054701;28;20474;-70
2021/08/12 09:25:50;;;;;;;1.70;1.57;;;;;;;24.07;57.90;101700.28;5054447;28;20915;-71
2021/08/12 09:28:23;;;;;;;3.47;1.97;;;;;;;24.16;53.50;101700.84;5054774;28;20489;-68
2021/08/12 09:31:22;;;;;;;2.23;1.77;;;;;;;24.25;56.00;101693.09;5054300;28;20993;-70
2021/08/12 09:33:54;;;;;;;1.63;1.43;;;;;;;24.37;56.84;101692.97;4973909;28;20844;-70
2021/08/12 09:36:33;;;;;;;1.67;1.50;;;;;;;24.45;55.02;101698.66;5039388;28;20469;-71
2021/08/12 09:39:18;;;;;;;1.70;1.30;;;;;;;24.50;53.82;101701.09;5054552;28;20430;-70
2021/08/12 09:41:46;;;;;;;1.73;1.40;;;;;;;24.46;53.89;101700.25;5054316;28;20467;-71
2021/08/12 09:44:36;;;;;;;2.00;1.80;;;;;;;24.34;54.63;101701.97;5054392;28;20434;-71
2021/08/12 09:47:04;;;;;;;6.00;2.00;;;;;;;24.27;56.33;101701.84;5054252;28;20453;-73
2021/08/12 09:49:46;;;;;;;1.23;1.13;;;;;;;24.18;55.21;101701.28;5053969;28;20824;-71
2021/08/12 09:52:24;;;;;;;1.70;1.60;;;;;;;24.23;57.95;101700.19;5053860;28;21029;-72
2021/08/12 09:54:58;;;;;;;1.93;1.63;;;;;;;24.31;56.68;101697.19;5054278;28;20789;-71
2021/08/12 09:57:24;;;;;;;2.17;1.60;;;;;;;24.43;54.66;101696.22;5054162;28;20850;-71
2021/08/12 09:59:52;;;;;;;1.53;1.30;;;;;;;24.58;52.48;101702.84;5054022;28;20451;-70
2021/08/12 10:02:20;;;;;;;2.27;1.40;;;;;;;24.63;54.27;101696.97;5055166;28;20493;-73
2021/08/12 10:04:46;;;;;;;1.50;1.40;;;;;;;24.69;55.48;101695.47;5053706;28;20450;-72
2021/08/12 10:07:44;;;;;;;1.80;1.50;;;;;;;24.76;55.70;101703.13;5053661;28;20515;-72
2021/08/12 10:10:17;;;;;;;1.40;1.30;;;;;;;24.81;53.57;101698.06;5053553;28;20434;-72
2021/08/12 10:12:47;;;;;;;7.47;1.20;;;;;;;24.86;44.80;101703.28;5053758;28;20478;-72
2021/08/12 10:15:15;;;;;;;1.83;1.57;;;;;;;24.83;46.75;101700.47;5053857;28;20438;-72
2021/08/12 10:17:43;;;;;;;1.90;1.27;;;;;;;24.89;46.82;101696.22;5053281;28;20450;-72
2021/08/12 10:20:12;;;;;;;3.20;1.40;;;;;;;24.95;50.92;101696.69;5053582;28;20875;-72
2021/08/12 10:22:39;;;;;;;1.37;1.20;;;;;;;24.92;48.14;101704.59;5053695;28;20466;-72
2021/08/12 10:25:11;;;;;;;1.97;1.50;;;;;;;24.78;51.24;101696.03;5053747;28;20438;-72
2021/08/12 10:27:38;;;;;;;1.87;1.77;;;;;;;24.91;49.16;101688.31;5053331;28;20892;-73
2021/08/12 10:30:06;;;;;;;3.00;1.80;;;;;;;25.13;48.08;101683.94;5053655;28;20434;-72
2021/08/12 10:32:35;;;;;;;2.40;1.73;;;;;;;25.20;49.29;101691.56;5053103;28;20870;-72
2021/08/12 10:35:03;;;;;;;1.80;1.43;;;;;;;25.40;48.54;101682.72;5053571;28;20453;-72
2021/08/12 10:37:29;;;;;;;1.70;1.50;;;;;;;25.56;49.39;101684.53;5053592;28;20446;-72
2021/08/12 10:39:56;;;;;;;1.93;1.83;;;;;;;25.60;50.04;101682.59;5053476;28;20454;-72
2021/08/12 10:42:25;;;;;;;4.70;1.90;;;;;;;25.62;48.92;101675.47;5053366;28;20485;-72
2021/08/12 10:44:52;;;;;;;1.97;1.67;;;;;;;25.70;46.57;101679.16;5053420;28;20445;-72
2021/08/12 10:47:37;;;;;;;3.23;1.67;;;;;;;25.76;47.58;101683.22;5053400;28;20450;-72
2021/08/12 10:50:26;;;;;;;2.40;1.60;;;;;;;25.78;46.41;101686.41;5053063;28;20931;-72
2021/08/12 10:53:20;;;;;;;1.67;1.57;;;;;;;25.86;48.75;101687.31;5053310;28;20466;-72
2021/08/12 10:56:10;;;;;;;2.30;1.70;;;;;;;25.79;46.96;101670.56;5052842;28;20845;-72
2021/08/12 10:58:43;;;;;;;1.60;1.43;;;;;;;25.91;48.97;101670.31;5053166;28;20426;-72
2021/08/12 11:01:10;;;;;;;2.13;1.27;;;;;;;25.97;45.31;101677.09;5053281;28;20427;-72
2021/08/12 11:03:46;;;;;;;1.53;1.43;;;;;;;26.03;45.50;101674.78;5053045;28;20462;-72
2021/08/12 11:06:15;;;;;;;2.70;1.70;;;;;;;26.08;47.74;101669.69;5053135;28;20484;-73
2021/08/12 11:08:57;;;;;;;1.40;1.20;;;;;;;26.23;45.32;101662.31;5053032;28;20434;-72
2021/08/12 11:11:51;;;;;;;3.03;1.90;;;;;;;26.33;43.13;101672.72;5052733;28;20553;-72
2021/08/12 11:14:56;;;;;;;2.50;1.63;;;;;;;26.09;45.30;101660.19;5053047;28;20454;-72
2021/08/12 11:17:23;;;;;;;1.80;1.57;;;;;;;26.39;45.45;101654.53;5053067;28;20431;-72
2021/08/12 11:19:51;;;;;;;3.13;1.70;;;;;;;26.55;46.85;101647.91;5052668;28;20800;-72
2021/08/12 11:22:37;;;;;;;2.00;1.67;;;;;;;27.25;46.46;101665.50;5052534;28;20959;-72
2021/08/12 11:25:06;;;;;;;1.80;1.43;;;;;;;27.76;41.66;101659.00;5052980;28;20519;-71
2021/08/12 11:27:37;;;;;;;2.83;1.60;;;;;;;28.47;39.57;101658.38;5052858;28;20445;-73
2021/08/12 11:33:32;;;;;;;1.83;1.23;;;;;;;29.82;37.13;101669.22;5111146;27;21018;-74